Time;durP1;ratioP1;P1;durP2;ratioP2;P2;SDS_P1;SDS_P2;PMS_P1;PMS_P2;Temp;Humidity;BMP_temperature;BMP_pressure;BME280_temperature;BME280_humidity;BME280_pressure;Samples;Min_cycle;Max_cycle;Signal;HPM_P1;HPM_P2
2022/08/26 00:00:50;;;;;;;14.02;7.13;;;23.30;77.30;;;;;;5023524;28;20056;-71
2022/08/26 00:03:16;;;;;;;16.33;6.65;;;23.20;77.80;;;;;;5011679;28;20045;-71
2022/08/26 00:05:42;;;;;;;19.83;7.63;;;23.20;77.90;;;;;;5019583;28;20387;-72
2022/08/26 00:08:08;;;;;;;13.57;6.93;;;23.20;78.50;;;;;;4993330;28;20053;-71
2022/08/26 00:10:34;;;;;;;15.88;6.63;;;23.10;78.50;;;;;;5026758;28;20452;-73
2022/08/26 00:12:59;;;;;;;20.27;7.22;;;23.20;78.20;;;;;;5013031;28;20045;-71
2022/08/26 00:15:25;;;;;;;17.95;7.45;;;23.20;78.20;;;;;;5017850;28;20053;-71
2022/08/26 00:17:51;;;;;;;13.20;7.07;;;23.20;78.10;;;;;;5019488;28;20049;-71
2022/08/26 00:20:23;;;;;;;15.85;7.70;;;23.20;78.70;;;;;;4997488;28;20120;-72
2022/08/26 00:22:49;;;;;;;14.10;7.30;;;23.10;78.30;;;;;;5018602;28;20156;-71
2022/08/26 00:25:14;;;;;;;18.25;7.88;;;23.10;78.60;;;;;;5020658;28;20800;-72
2022/08/26 00:27:42;;;;;;;19.20;8.43;;;23.00;78.50;;;;;;4991833;28;20115;-72
2022/08/26 00:30:10;;;;;;;17.75;7.13;;;23.00;78.90;;;;;;5008634;28;20133;-72
2022/08/26 00:32:36;;;;;;;15.57;7.82;;;23.00;78.60;;;;;;5002924;28;20052;-71
2022/08/26 00:35:03;;;;;;;18.30;7.95;;;23.00;78.70;;;;;;4996279;28;20125;-72
2022/08/26 00:37:28;;;;;;;15.35;7.82;;;23.00;79.00;;;;;;5022867;28;20041;-73
2022/08/26 00:39:54;;;;;;;15.80;7.38;;;22.90;79.70;;;;;;5023280;28;20107;-72
2022/08/26 00:42:20;;;;;;;18.27;7.72;;;22.90;78.90;;;;;;5008490;28;20049;-71
2022/08/26 00:44:46;;;;;;;15.63;7.15;;;22.80;80.00;;;;;;4988407;28;20608;-70
2022/08/26 00:47:33;;;;;;;18.00;7.90;;;22.80;79.60;;;;;;4992739;28;20046;-71
2022/08/26 00:49:59;;;;;;;14.65;7.43;;;22.80;80.30;;;;;;5015695;28;20053;-72
2022/08/26 00:52:24;;;;;;;16.98;7.30;;;22.80;80.00;;;;;;5022102;28;20046;-71
2022/08/26 00:55:02;;;;;;;17.55;8.05;;;22.80;79.60;;;;;;4992376;28;20053;-71
2022/08/26 00:57:28;;;;;;;15.55;7.38;;;22.70;80.20;;;;;;5010492;28;20360;-71
2022/08/26 00:59:57;;;;;;;18.38;8.32;;;22.70;80.40;;;;;;5022875;28;20059;-72
2022/08/26 01:02:23;;;;;;;12.73;7.03;;;22.70;80.80;;;;;;5002459;28;20606;-72
2022/08/26 01:04:50;;;;;;;16.27;7.53;;;22.60;80.60;;;;;;4997793;28;20132;-71
2022/08/26 01:07:16;;;;;;;14.33;8.70;;;22.60;80.60;;;;;;5002504;28;20042;-72
2022/08/26 01:09:42;;;;;;;17.35;7.82;;;22.60;80.60;;;;;;5020882;28;20312;-69
2022/08/26 01:12:08;;;;;;;21.98;7.63;;;22.60;80.60;;;;;;4990466;28;20042;-68
2022/08/26 01:14:34;;;;;;;19.23;8.30;;;22.60;80.20;;;;;;5018896;28;20042;-68
2022/08/26 01:17:01;;;;;;;18.23;7.65;;;22.60;81.20;;;;;;5016771;28;20053;-71
2022/08/26 01:19:48;;;;;;;16.95;7.90;;;22.60;80.80;;;;;;5007962;28;20075;-71
2022/08/26 01:22:18;;;;;;;20.70;7.80;;;22.60;80.60;;;;;;5017745;28;20060;-70
2022/08/26 01:24:43;;;;;;;15.73;7.40;;;22.60;81.30;;;;;;5003529;28;20042;-71
2022/08/26 01:27:11;;;;;;;22.90;7.13;;;22.50;81.00;;;;;;5019361;28;20564;-72
2022/08/26 01:29:37;;;;;;;18.48;8.18;;;22.50;81.30;;;;;;5005894;28;20138;-72
2022/08/26 01:32:04;;;;;;;15.65;8.15;;;22.50;80.80;;;;;;5030462;28;20095;-72
2022/08/26 01:34:34;;;;;;;20.55;8.20;;;22.50;81.30;;;;;;5006529;28;20052;-72
2022/08/26 01:37:03;;;;;;;22.05;7.88;;;22.50;81.30;;;;;;5008240;28;20046;-73
2022/08/26 01:39:30;;;;;;;16.35;7.82;;;22.50;81.40;;;;;;5010115;28;20061;-72
2022/08/26 01:41:56;;;;;;;17.08;7.32;;;22.50;81.30;;;;;;5008630;28;20041;-71
2022/08/26 01:44:23;;;;;;;17.35;8.30;;;22.40;81.20;;;;;;4992697;28;20052;-73
2022/08/26 01:46:49;;;;;;;17.35;8.40;;;22.40;81.40;;;;;;5021972;28;20471;-72
2022/08/26 01:49:15;;;;;;;19.13;8.57;;;22.50;81.50;;;;;;5001744;28;20053;-71
2022/08/26 01:51:43;;;;;;;15.90;7.32;;;22.40;81.70;;;;;;5013948;28;20136;-71
2022/08/26 01:54:09;;;;;;;15.73;7.60;;;22.40;81.40;;;;;;5017920;28;20042;-73
2022/08/26 01:56:35;;;;;;;25.52;8.20;;;22.40;81.70;;;;;;4998555;28;20053;-71
2022/08/26 01:59:01;;;;;;;16.27;8.43;;;22.30;81.90;;;;;;5018184;28;20148;-72
2022/08/26 02:01:27;;;;;;;12.88;8.10;;;22.30;81.90;;;;;;5021753;28;21360;-72
2022/08/26 02:04:26;;;;;;;18.02;8.68;;;22.30;81.70;;;;;;5003317;28;20054;-71
2022/08/26 02:06:52;;;;;;;23.48;8.02;;;22.20;82.10;;;;;;5031946;28;20076;-70
2022/08/26 02:09:18;;;;;;;22.80;8.35;;;22.20;81.70;;;;;;5012928;28;20049;-69
2022/08/26 02:11:44;;;;;;;19.00;8.45;;;22.20;82.40;;;;;;5012945;28;20498;-71
2022/08/26 02:14:21;;;;;;;20.50;8.13;;;22.20;82.50;;;;;;5018362;28;20073;-72
2022/08/26 02:16:49;;;;;;;20.15;7.57;;;22.10;82.50;;;;;;5020965;28;20045;-71
2022/08/26 02:19:19;;;;;;;20.85;8.23;;;22.10;82.50;;;;;;5001253;28;20163;-71
2022/08/26 02:21:46;;;;;;;19.48;8.15;;;22.20;82.90;;;;;;5027470;28;20586;-71
2022/08/26 02:24:17;;;;;;;20.20;8.43;;;22.10;82.40;;;;;;5023146;28;20855;-69
2022/08/26 02:26:43;;;;;;;17.02;7.78;;;22.20;82.60;;;;;;4991915;28;20108;-71
2022/08/26 02:29:23;;;;;;;22.15;7.93;;;22.20;82.30;;;;;;5041562;28;20128;-71
2022/08/26 02:31:49;;;;;;;21.73;7.32;;;22.10;82.70;;;;;;5019008;28;20057;-69
2022/08/26 02:34:19;;;;;;;18.05;7.95;;;22.10;82.30;;;;;;5001862;28;20042;-70
2022/08/26 02:36:44;;;;;;;21.70;8.32;;;22.10;82.90;;;;;;4992605;28;20041;-70
2022/08/26 02:39:10;;;;;;;19.92;8.13;;;22.00;82.90;;;;;;5014924;28;20106;-71
2022/08/26 02:41:37;;;;;;;21.33;8.85;;;22.00;83.60;;;;;;4994961;28;20056;-70
2022/08/26 02:44:03;;;;;;;19.30;8.05;;;22.00;83.10;;;;;;4990107;28;20056;-71
2022/08/26 02:46:30;;;;;;;18.25;8.18;;;22.00;82.80;;;;;;5043892;28;20367;-71
2022/08/26 02:48:56;;;;;;;14.73;7.95;;;21.90;83.00;;;;;;5024599;28;20120;-71
2022/08/26 02:51:22;;;;;;;19.38;8.50;;;21.90;83.00;;;;;;5002444;28;20037;-70
2022/08/26 02:53:48;;;;;;;21.70;8.10;;;21.90;83.40;;;;;;5023475;28;20048;-71
2022/08/26 02:56:14;;;;;;;20.73;8.82;;;21.90;83.80;;;;;;5003517;28;20038;-71
2022/08/26 02:58:39;;;;;;;13.93;8.10;;;21.80;83.80;;;;;;5018454;28;20132;-70
2022/08/26 03:01:05;;;;;;;17.00;8.05;;;21.80;83.70;;;;;;5005985;28;20050;-71
2022/08/26 03:03:31;;;;;;;18.38;8.48;;;21.80;83.80;;;;;;5028206;28;20081;-71
2022/08/26 03:05:57;;;;;;;20.75;9.73;;;21.70;84.40;;;;;;5025845;28;20046;-71
2022/08/26 03:08:23;;;;;;;24.13;8.95;;;21.60;85.20;;;;;;5043708;28;20037;-72
2022/08/26 03:10:49;;;;;;;16.48;8.43;;;21.60;84.60;;;;;;5008177;28;20046;-70
2022/08/26 03:13:15;;;;;;;20.40;8.23;;;21.60;84.70;;;;;;4996497;28;20044;-71
2022/08/26 03:15:41;;;;;;;15.68;8.40;;;21.60;84.70;;;;;;5007778;28;20165;-71
2022/08/26 03:18:07;;;;;;;20.30;9.10;;;21.60;84.90;;;;;;5018371;28;20128;-72
2022/08/26 03:20:33;;;;;;;21.77;9.55;;;21.60;84.60;;;;;;5001271;28;20057;-71
2022/08/26 03:22:59;;;;;;;21.83;9.82;;;21.60;84.80;;;;;;5025505;28;20057;-73
2022/08/26 03:25:25;;;;;;;22.35;9.95;;;21.50;84.90;;;;;;5017013;28;20084;-71
2022/08/26 03:27:51;;;;;;;22.02;8.73;;;21.50;85.60;;;;;;4994651;28;20053;-73
2022/08/26 03:33:02;;;;;;;24.23;9.18;;;21.50;85.00;;;;;;5008978;28;20045;-72
2022/08/26 03:35:28;;;;;;;21.27;10.13;;;21.50;85.10;;;;;;5012353;28;20055;-72
2022/08/26 03:37:53;;;;;;;23.63;9.82;;;21.40;85.10;;;;;;5021033;28;20049;-71
2022/08/26 03:40:19;;;;;;;20.95;9.88;;;21.40;86.00;;;;;;5025899;28;20471;-68
2022/08/26 03:42:45;;;;;;;20.63;9.60;;;21.40;85.50;;;;;;5002219;28;20057;-70
2022/08/26 03:45:11;;;;;;;16.73;8.73;;;21.30;85.70;;;;;;4992187;28;20046;-68
2022/08/26 03:47:38;;;;;;;19.00;9.45;;;21.30;86.10;;;;;;5016792;28;20105;-71
2022/08/26 03:50:05;;;;;;;18.45;8.75;;;21.30;85.90;;;;;;5008954;28;20716;-68
2022/08/26 03:52:31;;;;;;;14.03;8.33;;;21.30;85.70;;;;;;5016367;28;20099;-71
2022/08/26 03:54:57;;;;;;;20.30;9.73;;;21.30;85.90;;;;;;5023601;28;20049;-70
2022/08/26 03:57:23;;;;;;;18.55;9.95;;;21.20;85.90;;;;;;5023131;28;20050;-72
2022/08/26 03:59:48;;;;;;;19.05;9.05;;;21.30;86.00;;;;;;5003003;28;20060;-71
2022/08/26 04:02:14;;;;;;;19.95;9.75;;;21.20;85.40;;;;;;5003596;28;20131;-71
2022/08/26 04:04:40;;;;;;;16.77;10.05;;;21.20;85.90;;;;;;5011276;28;20049;-71
2022/08/26 04:07:06;;;;;;;21.90;9.50;;;21.10;86.30;;;;;;5017637;28;20052;-70
2022/08/26 04:09:32;;;;;;;20.45;9.07;;;21.20;86.10;;;;;;5019809;28;20053;-70
2022/08/26 04:11:58;;;;;;;14.90;9.55;;;21.10;86.30;;;;;;5018453;28;20129;-71
2022/08/26 04:14:25;;;;;;;17.65;9.07;;;21.20;86.40;;;;;;4978186;28;20072;-71
2022/08/26 04:16:51;;;;;;;18.92;9.23;;;21.10;86.50;;;;;;5001429;28;20060;-72
2022/08/26 04:19:17;;;;;;;21.20;10.05;;;21.10;86.20;;;;;;5042419;28;20060;-71
2022/08/26 04:21:44;;;;;;;25.35;9.82;;;21.10;86.20;;;;;;5039756;28;20191;-71
2022/08/26 04:24:10;;;;;;;23.63;9.25;;;21.10;86.60;;;;;;5012793;28;20521;-71
2022/08/26 04:26:36;;;;;;;18.40;9.35;;;21.00;86.70;;;;;;5003141;28;20041;-70
2022/08/26 04:29:04;;;;;;;16.98;9.23;;;21.10;86.80;;;;;;4995645;28;20055;-71
2022/08/26 04:31:29;;;;;;;21.33;9.45;;;21.10;86.20;;;;;;5017869;28;20286;-71
2022/08/26 04:33:55;;;;;;;24.73;10.93;;;21.10;85.90;;;;;;5005507;28;20476;-72
2022/08/26 04:36:24;;;;;;;19.10;9.80;;;21.20;86.50;;;;;;5017979;28;20510;-72
2022/08/26 04:38:50;;;;;;;19.83;9.50;;;21.10;86.30;;;;;;5022339;28;20639;-72
2022/08/26 04:41:17;;;;;;;20.83;9.52;;;21.20;86.20;;;;;;5040124;28;20129;-70
2022/08/26 04:43:43;;;;;;;18.65;9.45;;;21.10;86.50;;;;;;4992387;28;20057;-71
2022/08/26 04:46:10;;;;;;;19.70;9.50;;;21.00;86.60;;;;;;5020312;28;20049;-71
2022/08/26 04:48:36;;;;;;;21.00;9.52;;;21.10;86.30;;;;;;5021659;28;20045;-72
2022/08/26 04:51:03;;;;;;;19.83;9.18;;;21.10;86.40;;;;;;5021989;28;20106;-71
2022/08/26 04:53:29;;;;;;;20.15;9.93;;;21.10;86.40;;;;;;5021574;28;20110;-72
2022/08/26 04:55:55;;;;;;;16.15;9.38;;;21.10;86.60;;;;;;5016640;28;20049;-71
2022/08/26 04:58:21;;;;;;;21.85;10.10;;;21.10;86.40;;;;;;5005360;28;20070;-70
2022/08/26 05:00:47;;;;;;;13.55;9.52;;;21.10;87.40;;;;;;4988798;28;20134;-71
2022/08/26 05:03:14;;;;;;;17.08;9.50;;;21.10;87.10;;;;;;5016936;28;20042;-73
2022/08/26 05:05:41;;;;;;;24.35;10.63;;;21.10;87.00;;;;;;5019237;28;20054;-72
2022/08/26 05:08:10;;;;;;;19.75;10.02;;;21.10;86.90;;;;;;5007764;28;20076;-73
2022/08/26 05:10:43;;;;;;;22.50;9.25;;;21.10;86.80;;;;;;4996048;28;20160;-73
2022/08/26 05:13:09;;;;;;;18.60;10.15;;;21.10;87.30;;;;;;5010634;28;20553;-70
2022/08/26 05:15:35;;;;;;;19.33;10.30;;;21.10;87.50;;;;;;4994845;28;20161;-71
2022/08/26 05:18:05;;;;;;;17.95;9.55;;;21.10;86.80;;;;;;4991616;28;20045;-72
2022/08/26 05:20:31;;;;;;;23.08;10.18;;;21.10;87.40;;;;;;5038144;28;20056;-71
2022/08/26 05:23:00;;;;;;;23.40;8.98;;;21.10;87.20;;;;;;5023782;28;20132;-72
2022/08/26 05:25:27;;;;;;;20.60;9.68;;;21.10;87.00;;;;;;5020212;28;20055;-70
2022/08/26 05:27:52;;;;;;;25.55;10.82;;;21.20;86.90;;;;;;5017278;28;20509;-70
2022/08/26 05:30:18;;;;;;;17.65;9.55;;;21.20;86.90;;;;;;5010737;28;20049;-71
2022/08/26 05:32:47;;;;;;;21.55;9.70;;;21.20;87.20;;;;;;5026524;28;20148;-72
2022/08/26 05:35:13;;;;;;;18.02;9.55;;;21.20;87.30;;;;;;5006711;28;20069;-70
2022/08/26 05:37:39;;;;;;;22.40;11.30;;;21.20;87.20;;;;;;4983533;28;20072;-71
2022/08/26 05:40:05;;;;;;;20.35;10.18;;;21.20;86.80;;;;;;5045480;28;20732;-71
2022/08/26 05:42:31;;;;;;;22.30;9.80;;;21.20;87.30;;;;;;4992629;28;20041;-71
2022/08/26 05:44:57;;;;;;;17.98;9.60;;;21.30;87.40;;;;;;5013925;28;20380;-72
2022/08/26 05:47:23;;;;;;;18.27;9.25;;;21.30;87.30;;;;;;5021364;28;20053;-72
2022/08/26 05:49:52;;;;;;;23.95;10.85;;;21.30;86.80;;;;;;5022840;28;20068;-72
2022/08/26 05:52:18;;;;;;;23.63;10.38;;;21.30;86.90;;;;;;5007621;28;20459;-72
2022/08/26 05:54:44;;;;;;;22.10;10.25;;;21.50;87.00;;;;;;5011819;28;20057;-72
2022/08/26 05:57:12;;;;;;;20.13;10.75;;;21.50;86.80;;;;;;4999775;28;20050;-72
2022/08/26 05:59:38;;;;;;;22.17;10.18;;;21.60;86.20;;;;;;5015755;28;20199;-72
2022/08/26 06:02:04;;;;;;;19.55;10.25;;;21.70;86.20;;;;;;5006388;28;20819;-72
2022/08/26 06:04:30;;;;;;;19.88;10.38;;;21.70;86.00;;;;;;5027663;28;20099;-73
2022/08/26 06:06:56;;;;;;;19.92;11.02;;;21.80;85.80;;;;;;5023864;28;20073;-72
2022/08/26 06:09:26;;;;;;;24.35;11.02;;;21.80;85.90;;;;;;4999686;28;20049;-70
2022/08/26 06:11:54;;;;;;;20.45;10.52;;;21.90;86.00;;;;;;5040251;28;20095;-71
2022/08/26 06:14:21;;;;;;;19.77;10.55;;;21.90;85.80;;;;;;5033991;28;20092;-69
2022/08/26 06:16:50;;;;;;;20.48;11.27;;;22.00;85.50;;;;;;5010434;28;20692;-70
2022/08/26 06:19:18;;;;;;;17.08;9.15;;;22.00;86.00;;;;;;5012750;28;20058;-69
2022/08/26 06:21:48;;;;;;;18.00;9.45;;;22.10;85.50;;;;;;5015703;28;20155;-71
2022/08/26 06:27:08;;;;;;;24.10;9.80;;;22.20;85.80;;;;;;5017359;28;20050;-71
2022/08/26 06:29:35;;;;;;;17.38;9.70;;;22.30;85.00;;;;;;5044117;28;20446;-71
2022/08/26 06:32:02;;;;;;;14.68;8.77;;;22.40;84.60;;;;;;5020567;28;20077;-71
2022/08/26 06:34:31;;;;;;;13.55;9.52;;;22.40;84.50;;;;;;4997038;28;20046;-70
2022/08/26 06:37:01;;;;;;;21.50;9.48;;;22.50;84.50;;;;;;5024118;28;20055;-71
2022/08/26 06:39:29;;;;;;;23.02;10.20;;;22.60;84.70;;;;;;5017122;28;20054;-71
2022/08/26 06:41:57;;;;;;;;;;;22.60;84.20;;;;;;5024280;28;20037;-70
2022/08/26 06:44:25;;;;;;;20.92;10.10;;;22.70;84.30;;;;;;5064134;28;19919;-70
2022/08/26 06:46:53;;;;;;;20.58;8.65;;;22.70;84.00;;;;;;5042166;28;20124;-70
2022/08/26 06:49:20;;;;;;;19.48;9.10;;;22.70;84.00;;;;;;5041021;28;20220;-70
2022/08/26 06:51:47;;;;;;;19.98;9.30;;;22.80;83.80;;;;;;5005168;28;20056;-71
2022/08/26 06:54:14;;;;;;;18.38;9.75;;;22.90;84.00;;;;;;5020103;28;20390;-71
2022/08/26 06:56:42;;;;;;;18.02;9.02;;;22.90;83.80;;;;;;5013487;28;20049;-69
2022/08/26 06:59:10;;;;;;;20.92;9.23;;;22.90;83.80;;;;;;5036978;28;20114;-70
2022/08/26 07:01:44;;;;;;;17.35;8.95;;;23.00;84.40;;;;;;5024170;28;20045;-70
2022/08/26 07:04:13;;;;;;;21.98;9.52;;;23.00;84.00;;;;;;5025133;28;20124;-69
2022/08/26 07:06:40;;;;;;;20.60;10.18;;;23.00;83.60;;;;;;5009867;28;20042;-70
2022/08/26 07:09:08;;;;;;;21.48;10.13;;;23.00;83.50;;;;;;5024430;28;20065;-70
2022/08/26 07:11:36;;;;;;;20.25;9.95;;;23.00;83.90;;;;;;5021459;28;20037;-71
2022/08/26 07:14:04;;;;;;;22.92;10.07;;;23.00;83.60;;;;;;5017416;28;20479;-71
2022/08/26 07:16:32;;;;;;;21.45;9.93;;;23.10;83.60;;;;;;5009870;28;20057;-69
2022/08/26 07:18:59;;;;;;;21.33;9.98;;;23.10;83.80;;;;;;5022404;28;20060;-69
2022/08/26 07:21:26;;;;;;;21.15;9.88;;;23.10;83.90;;;;;;5024145;28;20096;-72
2022/08/26 07:23:53;;;;;;;17.02;9.82;;;23.20;83.20;;;;;;5020040;28;20049;-71
2022/08/26 07:26:23;;;;;;;22.73;10.05;;;23.30;82.80;;;;;;5021865;28;20103;-72
2022/08/26 07:28:51;;;;;;;24.13;10.10;;;23.30;82.70;;;;;;5012287;28;20057;-69
2022/08/26 07:31:20;;;;;;;27.92;10.35;;;23.40;82.30;;;;;;5020069;28;20530;-69
2022/08/26 07:33:47;;;;;;;25.10;10.10;;;23.50;82.20;;;;;;5017197;28;20052;-69
2022/08/26 07:36:14;;;;;;;29.48;10.20;;;23.40;82.40;;;;;;5026437;28;20041;-69
2022/08/26 07:38:43;;;;;;;20.85;10.15;;;23.50;82.70;;;;;;4987238;28;20053;-70
2022/08/26 07:41:12;;;;;;;25.67;9.48;;;23.60;82.20;;;;;;5001144;28;20050;-69
2022/08/26 07:43:39;;;;;;;27.65;10.57;;;23.70;81.90;;;;;;5021568;28;20057;-68
2022/08/26 07:46:06;;;;;;;30.00;10.45;;;23.80;81.70;;;;;;5013937;28;20045;-68
2022/08/26 07:48:34;;;;;;;22.85;9.68;;;23.90;81.90;;;;;;5002529;28;20081;-69
2022/08/26 07:51:01;;;;;;;19.02;9.05;;;24.00;81.60;;;;;;5027753;28;20049;-68
2022/08/26 07:53:28;;;;;;;23.42;9.23;;;24.00;81.20;;;;;;5024245;28;20053;-68
2022/08/26 07:55:55;;;;;;;21.13;9.15;;;24.20;81.00;;;;;;5026512;28;20057;-68
2022/08/26 07:58:22;;;;;;;25.33;9.80;;;24.20;80.50;;;;;;5024868;28;20384;-69
2022/08/26 08:00:48;;;;;;;21.80;10.00;;;24.30;80.40;;;;;;5035500;28;20048;-69
2022/08/26 08:03:15;;;;;;;29.05;10.20;;;24.40;80.20;;;;;;5023308;28;20376;-70
2022/08/26 08:05:43;;;;;;;25.45;9.63;;;24.50;79.80;;;;;;5021416;28;20046;-70
2022/08/26 08:08:10;;;;;;;26.67;11.40;;;24.60;79.70;;;;;;5024338;28;20045;-69
2022/08/26 08:10:36;;;;;;;25.13;10.40;;;24.60;79.40;;;;;;5038839;28;20061;-68
2022/08/26 08:13:05;;;;;;;30.13;9.50;;;24.60;79.10;;;;;;5023328;28;20045;-68
2022/08/26 08:15:33;;;;;;;24.58;9.93;;;24.70;79.10;;;;;;5006593;28;20042;-69
2022/08/26 08:18:00;;;;;;;26.98;10.68;;;24.70;79.00;;;;;;5011234;28;20053;-69
2022/08/26 08:20:27;;;;;;;29.27;11.40;;;24.80;78.70;;;;;;5008685;28;20164;-69
2022/08/26 08:22:56;;;;;;;26.92;9.82;;;24.80;79.00;;;;;;5022140;28;20065;-70
2022/08/26 08:25:24;;;;;;;25.95;10.27;;;24.90;79.10;;;;;;5002575;28;20388;-69
2022/08/26 08:27:52;;;;;;;24.52;9.40;;;24.90;78.50;;;;;;5022826;28;20406;-69
2022/08/26 08:30:20;;;;;;;29.65;10.43;;;24.90;78.30;;;;;;5024333;28;20049;-70
2022/08/26 08:32:47;;;;;;;22.52;10.52;;;24.90;78.20;;;;;;5023408;28;20041;-69
2022/08/26 08:35:15;;;;;;;32.35;10.52;;;25.00;78.30;;;;;;5003904;28;20045;-69
2022/08/26 08:37:43;;;;;;;24.17;9.98;;;25.00;78.40;;;;;;5007532;28;20070;-68
2022/08/26 08:40:10;;;;;;;26.08;10.10;;;25.00;77.90;;;;;;5015142;28;20066;-68
2022/08/26 08:42:57;;;;;;;27.48;9.60;;;25.10;77.90;;;;;;5011176;28;20049;-68
2022/08/26 08:45:47;;;;;;;25.30;9.40;;;25.10;77.90;;;;;;5021621;28;20103;-68
2022/08/26 08:48:25;;;;;;;24.02;10.02;;;25.20;77.70;;;;;;5026904;28;20049;-68
2022/08/26 08:51:15;;;;;;;24.08;9.52;;;25.20;77.50;;;;;;5003829;28;20046;-68
2022/08/26 08:53:43;;;;;;;23.45;9.82;;;25.20;77.50;;;;;;5016756;28;20597;-69
2022/08/26 08:56:15;;;;;;;24.58;9.65;;;25.30;77.50;;;;;;5009260;28;20537;-69
2022/08/26 08:58:52;;;;;;;20.63;10.05;;;25.30;77.20;;;;;;5019794;28;20459;-68
2022/08/26 09:01:57;;;;;;;35.13;11.70;;;25.20;77.20;;;;;;5026538;28;20049;-69
2022/08/26 09:05:03;;;;;;;30.40;10.07;;;25.30;76.80;;;;;;5028620;28;20042;-68
2022/08/26 09:07:46;;;;;;;25.48;10.82;;;25.30;76.90;;;;;;5009695;28;20041;-69
2022/08/26 09:10:34;;;;;;;30.50;11.27;;;25.30;76.70;;;;;;5021472;28;20056;-69
2022/08/26 09:13:07;;;;;;;24.70;10.15;;;25.40;76.80;;;;;;5030915;28;20435;-69
2022/08/26 09:15:48;;;;;;;26.48;10.23;;;25.40;76.80;;;;;;5006302;28;20056;-68
2022/08/26 09:18:41;;;;;;;24.00;9.52;;;25.40;76.60;;;;;;5008784;28;20501;-69
2022/08/26 09:21:10;;;;;;;28.98;10.55;;;25.40;76.50;;;;;;5029880;28;20064;-69
2022/08/26 09:23:39;;;;;;;23.75;9.65;;;25.40;76.50;;;;;;5038647;28;20052;-70
2022/08/26 09:26:28;;;;;;;28.52;10.85;;;25.40;76.70;;;;;;4996448;28;20055;-70
2022/08/26 09:28:59;;;;;;;23.13;9.82;;;25.40;77.00;;;;;;5013449;28;20053;-70
2022/08/26 09:31:28;;;;;;;25.42;9.85;;;25.40;76.80;;;;;;5022294;28;20608;-70
2022/08/26 09:34:23;;;;;;;28.75;10.57;;;25.40;77.00;;;;;;5005708;28;20050;-69
2022/08/26 09:36:56;;;;;;;32.15;10.90;;;25.40;77.00;;;;;;5003925;28;20984;-69
2022/08/26 09:39:36;;;;;;;30.13;10.38;;;25.40;77.00;;;;;;5019066;28;20053;-69
2022/08/26 09:42:21;;;;;;;21.30;10.57;;;25.40;77.00;;;;;;5019846;28;20050;-72
2022/08/26 09:45:03;;;;;;;33.60;10.43;;;25.40;77.10;;;;;;5006971;28;20068;-71
2022/08/26 09:47:51;;;;;;;23.42;10.32;;;25.40;77.10;;;;;;5025096;28;20053;-71
2022/08/26 09:50:39;;;;;;;25.50;10.20;;;25.40;77.20;;;;;;5029899;28;20107;-70
2022/08/26 09:53:15;;;;;;;28.33;9.82;;;25.40;77.00;;;;;;5020383;28;20049;-70
2022/08/26 09:55:46;;;;;;;25.23;10.10;;;25.40;77.00;;;;;;5015307;28;20056;-70
2022/08/26 09:58:16;;;;;;;27.63;10.13;;;25.50;77.20;;;;;;5016322;28;20077;-70
2022/08/26 10:00:54;;;;;;;22.10;9.63;;;25.40;77.20;;;;;;5009271;28;20058;-70
2022/08/26 10:03:33;;;;;;;32.00;11.25;;;25.50;77.00;;;;;;5015606;28;20096;-70
2022/08/26 10:06:16;;;;;;;32.20;10.48;;;25.50;77.40;;;;;;5016491;28;20137;-70
2022/08/26 10:08:45;;;;;;;32.38;10.43;;;25.50;77.30;;;;;;5021675;28;20509;-70
2022/08/26 10:12:09;;;;;;;37.55;10.68;;;25.50;77.30;;;;;;5045377;28;20050;-70
2022/08/26 10:14:51;;;;;;;28.85;11.00;;;25.60;77.10;;;;;;5013977;28;20057;-69
2022/08/26 10:18:00;;;;;;;27.63;9.73;;;25.60;76.80;;;;;;4999465;28;20507;-69
2022/08/26 10:20:30;;;;;;;33.78;9.57;;;25.60;77.20;;;;;;5023019;28;20414;-69
2022/08/26 10:23:08;;;;;;;23.83;11.15;;;25.70;77.10;;;;;;5044109;28;20088;-68
2022/08/26 10:26:02;;;;;;;26.35;10.20;;;25.70;76.60;;;;;;5012971;28;20049;-68
2022/08/26 10:29:00;;;;;;;32.58;10.43;;;25.70;76.70;;;;;;5026493;28;20115;-69
2022/08/26 10:31:49;;;;;;;31.33;9.65;;;25.70;77.00;;;;;;4989591;28;20128;-68
2022/08/26 10:34:16;;;;;;;34.55;9.70;;;25.70;76.10;;;;;;5010272;28;20073;-69
2022/08/26 10:36:56;;;;;;;27.58;9.73;;;25.70;76.30;;;;;;5014541;28;20299;-69
2022/08/26 10:39:55;;;;;;;37.70;9.70;;;25.80;76.30;;;;;;5057256;28;20375;-67
2022/08/26 10:42:36;;;;;;;38.85;10.50;;;25.80;75.40;;;;;;5024642;28;20104;-67
2022/08/26 10:45:11;;;;;;;27.77;9.68;;;25.80;74.90;;;;;;5026506;28;20061;-69
2022/08/26 10:47:50;;;;;;;26.80;9.70;;;25.80;74.80;;;;;;5013200;28;20121;-68
2022/08/26 10:50:17;;;;;;;37.75;9.90;;;25.90;74.80;;;;;;5018076;28;20045;-68
2022/08/26 10:53:22;;;;;;;36.35;10.63;;;25.90;74.10;;;;;;5019234;28;20522;-69
2022/08/26 10:56:12;;;;;;;39.33;9.63;;;26.00;74.60;;;;;;5024344;28;20140;-68
2022/08/26 10:59:05;;;;;;;30.95;9.48;;;26.10;74.20;;;;;;5007191;28;20044;-68
2022/08/26 11:01:52;;;;;;;33.22;9.65;;;26.10;74.20;;;;;;5026999;28;20046;-68
2022/08/26 11:04:47;;;;;;;37.58;9.40;;;26.10;73.60;;;;;;5022138;28;20041;-71
2022/08/26 11:07:31;;;;;;;35.88;10.30;;;26.20;72.90;;;;;;5029664;28;20051;-70
2022/08/26 11:10:00;;;;;;;28.58;10.10;;;26.20;73.60;;;;;;5021125;28;20080;-70
2022/08/26 11:12:38;;;;;;;39.63;10.45;;;26.20;72.80;;;;;;5022785;28;20046;-70
2022/08/26 11:15:28;;;;;;;;;;;26.10;73.40;;;;;;5019495;28;20041;-72
2022/08/26 11:18:06;;;;;;;28.73;9.15;;;26.20;73.40;;;;;;5001134;28;20292;-72
2022/08/26 11:20:44;;;;;;;34.65;9.32;;;26.20;72.90;;;;;;5005412;28;20387;-71
2022/08/26 11:23:19;;;;;;;33.30;9.43;;;26.20;73.40;;;;;;4996462;28;20132;-71
2022/08/26 11:26:10;;;;;;;35.75;9.48;;;26.20;73.60;;;;;;5059068;28;20376;-71
2022/08/26 11:28:48;;;;;;;29.58;9.10;;;26.20;71.90;;;;;;5023668;28;20164;-71
2022/08/26 11:31:26;;;;;;;26.05;9.18;;;26.20;72.00;;;;;;5016077;28;20044;-71
2022/08/26 11:33:59;;;;;;;40.92;11.13;;;26.30;71.60;;;;;;5025466;28;20056;-70
2022/08/26 11:36:39;;;;;;;32.88;9.88;;;26.30;71.60;;;;;;4999271;28;20057;-71
2022/08/26 11:39:30;;;;;;;40.05;9.93;;;26.30;71.10;;;;;;5002382;28;20048;-71
2022/08/26 11:42:00;;;;;;;35.25;10.85;;;26.30;72.10;;;;;;5060100;28;20057;-70
2022/08/26 11:44:48;;;;;;;35.08;9.63;;;26.40;72.20;;;;;;5007556;28;20049;-71
2022/08/26 11:47:16;;;;;;;31.15;9.32;;;26.40;71.80;;;;;;5019437;28;20331;-70
2022/08/26 11:49:43;;;;;;;31.90;10.27;;;26.40;72.00;;;;;;5015640;28;20049;-71
2022/08/26 11:52:19;;;;;;;30.33;8.82;;;26.50;71.80;;;;;;5021130;28;20076;-70
2022/08/26 11:55:17;;;;;;;34.92;9.98;;;26.50;72.00;;;;;;4996803;28;20048;-71
2022/08/26 11:57:46;;;;;;;30.67;9.70;;;26.60;72.00;;;;;;5024738;28;20042;-71
2022/08/26 12:00:25;;;;;;;40.08;10.07;;;26.60;71.90;;;;;;5007933;28;20141;-68
2022/08/26 12:02:52;;;;;;;27.95;8.38;;;26.60;72.00;;;;;;5023558;28;20520;-69
2022/08/26 12:05:28;;;;;;;33.53;8.75;;;26.60;69.90;;;;;;5014583;28;20467;-70
2022/08/26 12:07:54;;;;;;;31.05;8.85;;;26.70;70.90;;;;;;5010503;28;20050;-70
2022/08/26 12:10:32;;;;;;;27.92;9.05;;;26.80;69.80;;;;;;5003362;28;20511;-71
2022/08/26 12:13:00;;;;;;;29.90;8.65;;;26.80;69.90;;;;;;5007490;28;20049;-69
2022/08/26 12:15:28;;;;;;;31.63;8.70;;;26.80;69.90;;;;;;5007393;28;20124;-69
2022/08/26 12:17:55;;;;;;;28.75;8.38;;;26.90;69.80;;;;;;5013961;28;20045;-68
2022/08/26 12:20:52;;;;;;;27.97;8.37;;;27.00;70.20;;;;;;5011070;28;20144;-68
2022/08/26 12:23:25;;;;;;;24.25;7.72;;;27.10;68.50;;;;;;5025331;28;20057;-68
2022/08/26 12:26:03;;;;;;;28.45;7.82;;;27.10;68.00;;;;;;4998789;28;20049;-69
2022/08/26 12:28:30;;;;;;;26.65;8.80;;;27.20;68.60;;;;;;5022302;28;20045;-72
2022/08/26 12:31:04;;;;;;;28.02;8.00;;;27.30;68.60;;;;;;5025468;28;20056;-72
2022/08/26 12:33:34;;;;;;;32.88;8.38;;;27.30;68.10;;;;;;5043760;28;20450;-71
2022/08/26 12:36:03;;;;;;;23.95;7.75;;;27.40;68.50;;;;;;5050754;28;20045;-68
2022/08/26 12:38:30;;;;;;;23.10;8.07;;;27.50;68.00;;;;;;4994742;28;20103;-68
2022/08/26 12:40:57;;;;;;;38.00;8.30;;;27.50;67.80;;;;;;5020208;28;20076;-69
2022/08/26 12:43:41;;;;;;;23.15;7.60;;;27.70;65.90;;;;;;5010338;28;21757;-69
2022/08/26 12:46:10;;;;;;;19.55;7.22;;;27.90;64.70;;;;;;5036053;28;20056;-68
2022/08/26 12:48:39;;;;;;;28.67;7.88;;;28.00;65.50;;;;;;5020557;28;20060;-72
2022/08/26 12:51:24;;;;;;;23.20;6.95;;;28.00;64.30;;;;;;5013847;28;20547;-71
2022/08/26 12:53:51;;;;;;;20.83;7.68;;;28.00;64.30;;;;;;5021607;28;20050;-70
2022/08/26 12:56:35;;;;;;;24.13;6.72;;;28.10;64.50;;;;;;4995772;28;20076;-70
2022/08/26 12:59:16;;;;;;;29.75;8.23;;;28.10;61.70;;;;;;5042001;28;20128;-71
2022/08/26 13:01:44;;;;;;;22.30;6.80;;;28.20;62.40;;;;;;5018162;28;20146;-68